createdAt,value
2023-04-20T00:01:21.080Z,93.10
2023-04-20T00:03:52.924Z,93.30
2023-04-20T00:06:25.924Z,92.80
2023-04-20T00:08:57.053Z,92.70
2023-04-20T00:11:30.203Z,92.70
2023-04-20T00:14:01.286Z,92.70
2023-04-20T00:16:34.631Z,92.80
2023-04-20T00:19:07.623Z,92.70
2023-04-20T00:21:39.209Z,92.80
2023-04-20T00:24:10.536Z,92.70
2023-04-20T00:26:42.222Z,92.70
2023-04-20T00:29:13.621Z,92.60
2023-04-20T00:31:47.097Z,92.50
2023-04-20T00:34:19.113Z,92.60
2023-04-20T00:36:49.854Z,92.70
2023-04-20T00:39:22.152Z,92.40
2023-04-20T00:41:52.790Z,92.50
2023-04-20T00:44:23.867Z,92.60
2023-04-20T00:46:59.162Z,92.60
2023-04-20T00:49:31.188Z,92.60
2023-04-20T00:52:02.212Z,92.60
2023-04-20T00:54:35.055Z,92.20
2023-04-20T00:57:07.496Z,91.90
2023-04-20T00:59:39.231Z,92.00
2023-04-20T01:02:12.768Z,92.00
2023-04-20T01:04:45.823Z,92.00
2023-04-20T01:07:16.533Z,92.10
2023-04-20T01:09:48.529Z,92.10
2023-04-20T01:12:19.190Z,92.10
2023-04-20T01:14:50.640Z,92.10
2023-04-20T01:17:24.967Z,92.10
2023-04-20T01:19:56.179Z,91.60
2023-04-20T01:22:29.634Z,91.30
2023-04-20T01:25:00.712Z,91.30
2023-04-20T01:27:31.569Z,91.30
2023-04-20T01:30:05.583Z,91.30
2023-04-20T01:32:36.471Z,91.40
2023-04-20T01:35:08.402Z,91.10
2023-04-20T01:37:41.792Z,91.20
2023-04-20T01:40:14.716Z,91.00
2023-04-20T01:42:45.403Z,90.80
2023-04-20T01:45:16.766Z,90.80
2023-04-20T01:47:47.590Z,90.70
2023-04-20T01:50:18.658Z,90.80
2023-04-20T01:52:52.064Z,90.90
2023-04-20T01:55:23.416Z,90.90
2023-04-20T01:57:56.469Z,91.00
2023-04-20T02:00:27.835Z,90.70
2023-04-20T02:02:58.589Z,90.80
2023-04-20T02:05:29.728Z,90.60
2023-04-20T02:08:04.906Z,90.40
2023-04-20T02:10:36.323Z,90.60
2023-04-20T02:13:07.006Z,90.50
2023-04-20T02:15:38.652Z,90.50
2023-04-20T02:18:09.883Z,90.60
2023-04-20T02:20:41.468Z,90.60
2023-04-20T02:23:14.968Z,90.70
2023-04-20T02:25:46.056Z,90.40
2023-04-20T02:28:17.072Z,90.50
2023-04-20T02:30:48.084Z,90.40
2023-04-20T02:33:21.493Z,90.40
2023-04-20T02:35:52.620Z,90.60
2023-04-20T02:38:26.072Z,90.70
2023-04-20T02:40:57.369Z,90.50
2023-04-20T02:43:28.927Z,90.40
2023-04-20T02:46:00.275Z,90.60
2023-04-20T02:48:32.014Z,90.80
2023-04-20T02:51:04.447Z,90.60
2023-04-20T02:53:41.893Z,90.70
2023-04-20T02:56:22.895Z,90.70
2023-04-20T02:58:58.566Z,90.70
2023-04-20T03:01:55.692Z,90.60
2023-04-20T03:04:29.165Z,90.60
2023-04-20T03:07:10.525Z,90.70
2023-04-20T03:09:45.705Z,90.60
2023-04-20T03:12:29.392Z,90.70
2023-04-20T03:15:32.336Z,90.60
2023-04-20T03:18:32.539Z,90.70
2023-04-20T03:21:03.433Z,90.60
2023-04-20T03:23:36.285Z,90.60
2023-04-20T03:26:10.836Z,90.60
2023-04-20T03:28:49.151Z,90.60
2023-04-20T03:31:23.487Z,90.50
2023-04-20T03:33:55.686Z,90.50
2023-04-20T03:36:26.690Z,90.40
2023-04-20T03:38:59.389Z,90.50
2023-04-20T03:41:33.862Z,90.50
2023-04-20T03:44:04.876Z,90.60
2023-04-20T03:46:36.792Z,90.40
2023-04-20T03:49:08.038Z,90.50
2023-04-20T03:51:39.162Z,90.40
2023-04-20T03:54:10.219Z,90.40
2023-04-20T03:56:44.991Z,90.60
2023-04-20T03:59:17.895Z,90.40
2023-04-20T04:01:52.200Z,90.40
2023-04-20T04:04:23.907Z,90.30
2023-04-20T04:06:54.888Z,90.50
2023-04-20T04:09:26.918Z,90.40
2023-04-20T04:12:01.709Z,90.40
2023-04-20T04:14:35.131Z,90.40
2023-04-20T04:17:08.350Z,90.30
2023-04-20T04:19:43.961Z,90.40
2023-04-20T04:22:15.773Z,90.30
2023-04-20T04:25:02.099Z,90.40
2023-04-20T04:27:36.251Z,90.30
2023-04-20T04:30:07.700Z,90.20
2023-04-20T04:32:39.724Z,90.00
2023-04-20T04:35:11.683Z,90.00
2023-04-20T04:37:42.745Z,89.60
2023-04-20T04:40:14.238Z,89.70
2023-04-20T04:42:49.025Z,89.50
2023-04-20T04:45:20.253Z,89.10
2023-04-20T04:47:53.184Z,89.10
2023-04-20T04:50:24.356Z,88.30
2023-04-20T04:52:55.811Z,88.20
2023-04-20T04:55:26.876Z,88.30
2023-04-20T04:58:00.411Z,88.30
2023-04-20T05:00:32.813Z,88.50
2023-04-20T05:03:04.477Z,88.80
2023-04-20T05:05:35.862Z,89.20
2023-04-20T05:08:07.237Z,89.70
2023-04-20T05:10:39.456Z,89.70
2023-04-20T05:13:13.829Z,89.40
2023-04-20T05:15:45.679Z,89.30
2023-04-20T05:18:16.556Z,89.40
2023-04-20T05:20:50.414Z,89.10
2023-04-20T05:23:21.689Z,89.10
2023-04-20T05:25:53.746Z,88.70
2023-04-20T05:28:29.080Z,87.60
2023-04-20T05:31:00.973Z,87.10
2023-04-20T05:33:35.058Z,87.60
2023-04-20T05:36:08.247Z,86.00
2023-04-20T05:38:39.567Z,86.00
2023-04-20T05:41:11.038Z,86.20
2023-04-20T05:43:44.472Z,85.30
2023-04-20T05:46:15.651Z,84.60
2023-04-20T05:48:47.121Z,85.30
2023-04-20T05:51:19.084Z,84.60
2023-04-20T05:53:51.017Z,84.90
2023-04-20T05:56:22.463Z,85.30
2023-04-20T05:59:01.154Z,84.40
2023-04-20T06:01:32.447Z,83.10
2023-04-20T06:04:03.856Z,84.20
2023-04-20T06:06:35.811Z,83.00
2023-04-20T06:09:06.898Z,83.40
2023-04-20T06:11:38.041Z,82.60
2023-04-20T06:14:12.539Z,83.10
2023-04-20T06:16:43.901Z,80.60
2023-04-20T06:19:15.972Z,80.10
2023-04-20T06:21:49.024Z,80.70
2023-04-20T06:24:21.023Z,81.00
2023-04-20T06:26:52.813Z,82.10
2023-04-20T06:29:27.170Z,80.50
2023-04-20T06:31:59.167Z,80.10
2023-04-20T06:34:31.151Z,79.90
2023-04-20T06:37:03.901Z,80.50
2023-04-20T06:39:37.352Z,80.20
2023-04-20T06:42:09.802Z,80.70
2023-04-20T06:44:44.392Z,81.60
2023-04-20T06:47:16.470Z,81.20
2023-04-20T06:49:48.194Z,80.10
2023-04-20T06:52:21.587Z,79.60
2023-04-20T06:54:53.424Z,78.90
2023-04-20T06:57:27.984Z,79.60
2023-04-20T07:00:03.138Z,80.50
2023-04-20T07:02:44.949Z,78.10
2023-04-20T07:05:16.685Z,78.40
2023-04-20T07:07:48.228Z,79.70
2023-04-20T07:10:19.549Z,79.80
2023-04-20T07:12:51.168Z,79.10
2023-04-20T07:15:26.756Z,79.50
2023-04-20T07:17:57.947Z,77.50
2023-04-20T07:20:29.550Z,77.50
2023-04-20T07:23:02.059Z,78.20
2023-04-20T07:25:34.177Z,78.10
2023-04-20T07:28:06.169Z,78.00
2023-04-20T07:30:41.520Z,76.40
2023-04-20T07:33:13.793Z,76.90
2023-04-20T07:35:45.776Z,77.50
2023-04-20T07:38:18.974Z,78.00
2023-04-20T07:40:50.604Z,76.40
2023-04-20T07:43:24.988Z,78.10
2023-04-20T07:46:00.071Z,77.50
2023-04-20T07:48:32.620Z,77.70
2023-04-20T07:51:04.254Z,78.30
2023-04-20T07:53:37.673Z,76.60
2023-04-20T07:56:09.779Z,76.70
2023-04-20T07:58:43.069Z,76.30
2023-04-20T08:01:17.981Z,75.30
2023-04-20T08:03:50.919Z,75.40
2023-04-20T08:06:22.460Z,75.10
2023-04-20T08:08:54.441Z,76.50
2023-04-20T08:11:25.958Z,75.60
2023-04-20T08:13:58.418Z,77.40
2023-04-20T08:16:32.139Z,76.70
2023-04-20T08:19:10.623Z,73.00
2023-04-20T08:21:44.100Z,71.20
2023-04-20T08:24:17.344Z,71.40
2023-04-20T08:26:48.507Z,71.40
2023-04-20T08:29:20.983Z,71.80
2023-04-20T08:31:55.410Z,71.60
2023-04-20T08:34:26.994Z,71.90
2023-04-20T08:37:00.496Z,70.90
2023-04-20T08:39:31.898Z,70.00
2023-04-20T08:42:03.913Z,68.90
2023-04-20T08:44:36.345Z,68.40
2023-04-20T08:47:13.264Z,68.10
2023-04-20T08:49:47.743Z,69.30
2023-04-20T08:52:19.388Z,69.10
2023-04-20T08:54:56.518Z,68.90
2023-04-20T08:57:29.138Z,68.80
2023-04-20T09:00:01.023Z,69.10
2023-04-20T09:02:35.760Z,69.20
2023-04-20T09:05:08.884Z,65.70
2023-04-20T09:07:39.964Z,65.60
2023-04-20T09:10:12.347Z,67.30
2023-04-20T09:12:44.415Z,69.50
2023-04-20T09:15:27.511Z,70.10
2023-04-20T09:18:01.321Z,66.80
2023-04-20T09:20:37.430Z,65.80
2023-04-20T09:23:19.099Z,64.80
2023-04-20T09:25:54.127Z,64.40
2023-04-20T09:28:26.692Z,62.60
2023-04-20T09:30:58.949Z,62.60
2023-04-20T09:33:38.346Z,61.30
2023-04-20T09:36:12.116Z,61.40
2023-04-20T09:38:44.840Z,58.90
2023-04-20T09:41:23.906Z,58.90
2023-04-20T09:43:56.701Z,59.80
2023-04-20T09:46:33.679Z,59.00
2023-04-20T09:49:12.064Z,60.60
2023-04-20T09:51:45.980Z,59.00
2023-04-20T09:54:18.986Z,57.20
2023-04-20T09:56:57.130Z,57.10
2023-04-20T09:59:32.061Z,58.40
2023-04-20T10:02:04.610Z,56.20
2023-04-20T10:04:44.269Z,55.40
2023-04-20T10:07:27.247Z,54.10
2023-04-20T10:10:12.090Z,54.70
2023-04-20T10:12:51.720Z,55.50
2023-04-20T10:15:24.655Z,55.90
2023-04-20T10:17:57.030Z,55.90
2023-04-20T10:20:31.837Z,53.90
2023-04-20T10:23:15.521Z,52.70
2023-04-20T10:25:48.186Z,52.30
2023-04-20T10:28:20.195Z,49.30
2023-04-20T10:30:55.694Z,49.90
2023-04-20T10:33:28.092Z,51.00
2023-04-20T10:36:06.399Z,48.80
2023-04-20T10:38:42.034Z,49.70
2023-04-20T10:41:13.885Z,49.00
2023-04-20T10:43:45.285Z,50.50
2023-04-20T10:46:23.500Z,48.90
2023-04-20T10:48:59.964Z,48.20
2023-04-20T10:51:34.537Z,49.20
2023-04-20T10:54:10.083Z,48.00
2023-04-20T10:56:42.440Z,48.90
2023-04-20T10:59:18.588Z,47.70
2023-04-20T11:01:50.650Z,46.50
2023-04-20T11:04:22.566Z,46.70
2023-04-20T11:06:57.483Z,46.60
2023-04-20T11:09:30.205Z,45.90
2023-04-20T11:12:02.461Z,46.10
2023-04-20T11:14:34.593Z,46.00
2023-04-20T11:17:06.160Z,46.40
2023-04-20T11:19:38.918Z,46.60
2023-04-20T11:22:13.108Z,45.50
2023-04-20T11:24:45.276Z,45.30
2023-04-20T11:27:24.554Z,45.10
2023-04-20T11:30:05.022Z,45.10
2023-04-20T11:32:36.949Z,43.70
2023-04-20T11:35:09.887Z,43.90
2023-04-20T11:37:54.201Z,44.70
2023-04-20T11:40:28.454Z,43.10
2023-04-20T11:43:05.164Z,45.60
2023-04-20T11:45:37.691Z,45.10
2023-04-20T11:48:14.027Z,45.10
2023-04-20T11:50:47.015Z,45.20
2023-04-20T11:53:20.911Z,45.00
2023-04-20T11:55:52.650Z,45.70
2023-04-20T11:58:23.867Z,46.60
2023-04-20T12:00:57.489Z,46.00
2023-04-20T12:03:29.352Z,45.30
2023-04-20T12:06:07.118Z,45.00
2023-04-20T12:08:41.502Z,45.20
2023-04-20T12:11:14.054Z,45.80
2023-04-20T12:13:45.475Z,46.10
2023-04-20T12:16:18.036Z,46.10
2023-04-20T12:18:49.627Z,46.50
2023-04-20T12:21:21.432Z,45.10
2023-04-20T12:23:55.554Z,44.80
2023-04-20T12:26:37.847Z,45.80
2023-04-20T12:29:10.650Z,44.60
2023-04-20T12:31:42.239Z,44.30
2023-04-20T12:34:14.073Z,44.70
2023-04-20T12:36:47.205Z,45.30
2023-04-20T12:39:24.659Z,45.10
2023-04-20T12:41:56.094Z,45.30
2023-04-20T12:44:27.947Z,44.60
2023-04-20T12:47:00.682Z,44.30
2023-04-20T12:49:33.837Z,45.30
2023-04-20T12:52:08.008Z,46.00
2023-04-20T12:54:44.125Z,44.90
2023-04-20T12:57:16.881Z,43.90
2023-04-20T12:59:52.234Z,43.30
2023-04-20T13:02:24.666Z,44.10
2023-04-20T13:04:56.852Z,43.90
2023-04-20T13:07:29.229Z,42.50
2023-04-20T13:10:04.397Z,42.80
2023-04-20T13:12:36.522Z,43.20
2023-04-20T13:15:11.850Z,43.20
2023-04-20T13:17:44.229Z,43.70
2023-04-20T13:20:16.586Z,43.60
2023-04-20T13:22:57.889Z,43.50
2023-04-20T13:25:33.144Z,42.70
2023-04-20T13:28:05.383Z,43.20
2023-04-20T13:30:36.262Z,43.30
2023-04-20T13:33:07.500Z,43.80
2023-04-20T13:35:38.342Z,43.80
2023-04-20T13:38:10.247Z,44.10
2023-04-20T13:40:45.494Z,44.00
2023-04-20T13:43:19.437Z,43.80
2023-04-20T13:45:52.692Z,44.00
2023-04-20T13:48:25.719Z,44.70
2023-04-20T13:50:57.431Z,42.90
2023-04-20T13:53:30.003Z,42.50
2023-04-20T13:56:03.816Z,43.30
2023-04-20T13:58:36.006Z,43.90
2023-04-20T14:01:11.373Z,44.10
2023-04-20T14:03:43.510Z,44.40
2023-04-20T14:06:15.818Z,44.40
2023-04-20T14:08:49.023Z,44.90
2023-04-20T14:11:23.403Z,45.20
2023-04-20T14:13:55.733Z,44.20
2023-04-20T14:16:28.707Z,44.40
2023-04-20T14:19:00.668Z,45.60
2023-04-20T14:21:33.222Z,43.50
2023-04-20T14:24:08.130Z,43.60
2023-04-20T14:26:43.162Z,42.80
2023-04-20T14:29:15.584Z,43.30
2023-04-20T14:31:47.173Z,42.90
2023-04-20T14:34:19.493Z,42.60
2023-04-20T14:36:52.368Z,42.10
2023-04-20T14:39:25.131Z,42.20
2023-04-20T14:41:59.477Z,42.70
2023-04-20T14:44:31.992Z,43.40
2023-04-20T14:47:04.389Z,43.90
2023-04-20T14:49:38.162Z,44.50
2023-04-20T14:52:09.889Z,45.20
2023-04-20T14:54:42.137Z,44.00
2023-04-20T14:57:18.679Z,43.60
2023-04-20T14:59:52.949Z,43.90
2023-04-20T15:02:24.853Z,42.90
2023-04-20T15:04:57.653Z,43.60
2023-04-20T15:07:29.730Z,43.10
2023-04-20T15:10:02.026Z,44.10
2023-04-20T15:12:37.543Z,44.50
2023-04-20T15:15:10.397Z,43.80
2023-04-20T15:17:41.710Z,45.80
2023-04-20T15:20:15.548Z,46.60
2023-04-20T15:22:47.591Z,46.70
2023-04-20T15:25:20.318Z,46.60
2023-04-20T15:27:55.837Z,46.60
2023-04-20T15:30:28.124Z,47.30
2023-04-20T15:33:05.343Z,47.10
2023-04-20T15:35:39.329Z,47.50
2023-04-20T15:38:10.800Z,48.20
2023-04-20T15:40:42.699Z,48.80
2023-04-20T15:43:16.337Z,48.80
2023-04-20T15:45:48.559Z,48.80
2023-04-20T15:48:21.770Z,49.30
2023-04-20T15:50:55.427Z,50.00
2023-04-20T15:53:29.447Z,48.00
2023-04-20T15:56:01.577Z,47.30
2023-04-20T15:58:37.571Z,46.90
2023-04-20T16:01:09.644Z,47.20
2023-04-20T16:03:44.019Z,47.20
2023-04-20T16:06:18.149Z,47.90
2023-04-20T16:08:53.776Z,47.90
2023-04-20T16:11:27.333Z,48.50
2023-04-20T16:14:01.372Z,48.80
2023-04-20T16:16:34.298Z,49.30
2023-04-20T16:19:06.645Z,49.20
2023-04-20T16:21:38.981Z,49.40
2023-04-20T16:24:10.575Z,49.70
2023-04-20T16:26:42.888Z,50.30
2023-04-20T16:29:17.813Z,50.70
2023-04-20T16:31:50.466Z,50.10
2023-04-20T16:34:24.886Z,49.90
2023-04-20T16:36:58.277Z,49.00
2023-04-20T16:39:31.011Z,49.10
2023-04-20T16:42:05.103Z,49.20
2023-04-20T16:44:41.817Z,49.30
2023-04-20T16:47:14.212Z,49.60
2023-04-20T16:49:45.890Z,49.90
2023-04-20T16:52:18.348Z,50.40
2023-04-20T16:54:50.282Z,50.60
2023-04-20T16:57:22.628Z,50.80
2023-04-20T16:59:58.322Z,51.30
2023-04-20T17:02:35.385Z,51.50
2023-04-20T17:05:07.707Z,51.60
2023-04-20T17:07:40.063Z,51.80
2023-04-20T17:10:11.678Z,52.10
2023-04-20T17:12:43.272Z,52.40
2023-04-20T17:15:17.653Z,52.60
2023-04-20T17:17:49.292Z,53.00
2023-04-20T17:20:20.384Z,53.10
2023-04-20T17:22:52.186Z,53.30
2023-04-20T17:25:24.173Z,53.70
2023-04-20T17:27:56.517Z,54.00
2023-04-20T17:30:30.360Z,54.40
2023-04-20T17:33:02.509Z,54.60
2023-04-20T17:35:34.453Z,54.80
2023-04-20T17:38:07.845Z,55.10
2023-04-20T17:40:39.540Z,55.10
2023-04-20T17:43:12.557Z,55.40
2023-04-20T17:45:46.330Z,55.60
2023-04-20T17:48:21.563Z,55.70
2023-04-20T17:50:53.222Z,55.80
2023-04-20T17:53:24.543Z,56.00
2023-04-20T17:55:56.422Z,56.10
2023-04-20T17:58:28.569Z,56.40
2023-04-20T18:01:05.061Z,56.60
2023-04-20T18:03:36.842Z,56.80
2023-04-20T18:06:07.756Z,56.90
2023-04-20T18:08:39.030Z,57.00
2023-04-20T18:11:09.708Z,57.20
2023-04-20T18:13:41.262Z,57.30
2023-04-20T18:16:14.739Z,57.50
2023-04-20T18:18:46.460Z,57.60
2023-04-20T18:21:18.271Z,58.40
2023-04-20T18:23:50.502Z,58.00
2023-04-20T18:26:21.285Z,58.20
2023-04-20T18:28:52.528Z,58.50
2023-04-20T18:31:26.181Z,58.50
2023-04-20T18:33:57.374Z,58.80
2023-04-20T18:36:28.711Z,58.90
2023-04-20T18:39:00.157Z,59.10
2023-04-20T18:41:31.094Z,59.30
2023-04-20T18:44:02.497Z,59.50
2023-04-20T18:46:36.463Z,59.70
2023-04-20T18:49:08.343Z,59.90
2023-04-20T18:51:40.745Z,60.10
2023-04-20T18:54:11.997Z,60.20
2023-04-20T18:56:42.817Z,60.40
2023-04-20T18:59:14.322Z,60.70
2023-04-20T19:01:47.717Z,60.80
2023-04-20T19:04:19.530Z,60.80
2023-04-20T19:06:51.170Z,61.10
2023-04-20T19:09:22.305Z,61.10
2023-04-20T19:11:53.854Z,61.30
2023-04-20T19:14:24.996Z,61.60
2023-04-20T19:16:58.770Z,61.70
2023-04-20T19:19:30.052Z,62.00
2023-04-20T19:22:01.055Z,62.10
2023-04-20T19:24:32.434Z,62.30
2023-04-20T19:27:03.640Z,62.50
2023-04-20T19:29:35.664Z,62.70
2023-04-20T19:32:09.711Z,62.80
2023-04-20T19:34:42.062Z,62.90
2023-04-20T19:37:13.943Z,63.10
2023-04-20T19:39:46.049Z,63.10
2023-04-20T19:42:16.814Z,63.20
2023-04-20T19:44:47.990Z,63.20
2023-04-20T19:47:21.485Z,63.40
2023-04-20T19:49:52.929Z,63.50
2023-04-20T19:52:23.758Z,63.70
2023-04-20T19:54:54.901Z,63.80
2023-04-20T19:57:26.831Z,63.80
2023-04-20T19:59:58.063Z,64.00
2023-04-20T20:02:31.579Z,64.20
2023-04-20T20:05:03.291Z,64.30
2023-04-20T20:07:38.026Z,64.40
2023-04-20T20:10:09.562Z,64.60
2023-04-20T20:12:41.069Z,64.60
2023-04-20T20:15:12.343Z,64.70
2023-04-20T20:17:47.906Z,64.50
2023-04-20T20:20:19.364Z,64.40
2023-04-20T20:22:51.003Z,64.20
2023-04-20T20:25:22.525Z,64.10
2023-04-20T20:27:53.257Z,63.80
2023-04-20T20:30:25.306Z,63.80
2023-04-20T20:32:59.248Z,63.60
2023-04-20T20:35:31.872Z,63.70
2023-04-20T20:38:06.599Z,63.50
2023-04-20T20:40:37.881Z,63.40
2023-04-20T20:43:08.937Z,63.20
2023-04-20T20:45:40.439Z,63.00
2023-04-20T20:48:13.727Z,63.00
2023-04-20T20:50:45.049Z,63.10
2023-04-20T20:53:19.191Z,63.00
2023-04-20T20:55:50.295Z,63.00
2023-04-20T20:58:21.249Z,62.90
2023-04-20T21:00:52.643Z,62.60
2023-04-20T21:03:26.263Z,62.60
2023-04-20T21:05:57.531Z,62.60
2023-04-20T21:08:28.443Z,62.50
2023-04-20T21:10:59.583Z,62.40
2023-04-20T21:13:30.315Z,62.40
2023-04-20T21:16:01.504Z,62.20
2023-04-20T21:18:37.719Z,62.40
2023-04-20T21:21:09.024Z,62.40
2023-04-20T21:23:39.857Z,62.20
2023-04-20T21:26:11.612Z,62.40
2023-04-20T21:28:42.324Z,62.40
2023-04-20T21:31:13.446Z,62.40
2023-04-20T21:33:47.312Z,62.60
2023-04-20T21:36:18.508Z,62.40
2023-04-20T21:38:49.285Z,62.60
2023-04-20T21:41:20.523Z,62.30
2023-04-20T21:43:51.222Z,62.50
2023-04-20T21:46:22.425Z,62.40
2023-04-20T21:48:56.497Z,62.40
2023-04-20T21:51:28.104Z,62.40
2023-04-20T21:53:58.801Z,62.60
2023-04-20T21:56:30.362Z,62.30
2023-04-20T21:59:01.354Z,62.60
2023-04-20T22:01:32.776Z,62.30
2023-04-20T22:04:07.783Z,62.70
2023-04-20T22:06:39.256Z,62.90
2023-04-20T22:09:10.172Z,62.80
2023-04-20T22:11:42.070Z,62.50
2023-04-20T22:14:12.732Z,62.60
2023-04-20T22:16:43.909Z,62.40
2023-04-20T22:19:18.021Z,62.50
2023-04-20T22:21:50.054Z,62.90
2023-04-20T22:24:21.576Z,62.50
2023-04-20T22:26:53.074Z,62.30
2023-04-20T22:29:24.490Z,62.50
2023-04-20T22:31:55.612Z,62.40
2023-04-20T22:34:28.914Z,62.10
2023-04-20T22:36:59.947Z,62.20
2023-04-20T22:39:30.777Z,62.20
2023-04-20T22:42:02.397Z,62.20
2023-04-20T22:44:33.845Z,62.20
2023-04-20T22:47:06.748Z,61.90
2023-04-20T22:49:40.622Z,62.80
2023-04-20T22:52:12.960Z,62.30
2023-04-20T22:54:48.404Z,62.20
2023-04-20T22:57:21.300Z,62.40
2023-04-20T22:59:52.264Z,62.30
2023-04-20T23:02:23.834Z,62.40
2023-04-20T23:04:57.308Z,62.40
2023-04-20T23:07:28.452Z,62.40
2023-04-20T23:10:00.163Z,62.40
2023-04-20T23:12:32.752Z,62.40
2023-04-20T23:15:04.120Z,62.40
2023-04-20T23:17:35.626Z,62.50
2023-04-20T23:20:11.273Z,62.70
2023-04-20T23:22:42.334Z,62.50
2023-04-20T23:25:13.107Z,62.80
2023-04-20T23:27:44.157Z,62.60
2023-04-20T23:30:16.391Z,63.00
2023-04-20T23:32:47.594Z,62.90
2023-04-20T23:35:21.717Z,63.00
2023-04-20T23:37:52.864Z,63.30
2023-04-20T23:40:23.780Z,63.40
2023-04-20T23:42:55.325Z,63.30
2023-04-20T23:45:26.563Z,63.50
2023-04-20T23:47:57.705Z,63.50
2023-04-20T23:50:31.112Z,63.70
2023-04-20T23:53:02.522Z,63.70
2023-04-20T23:55:33.313Z,63.90
2023-04-20T23:58:04.477Z,63.80
